createdAt,value
2023-11-24T00:00:45.542Z,10.90
2023-11-24T00:05:45.415Z,10.84
2023-11-24T00:10:45.347Z,10.90
2023-11-24T00:15:45.302Z,10.97
2023-11-24T00:20:45.212Z,10.93
2023-11-24T00:25:46.033Z,10.99
2023-11-24T00:30:45.118Z,10.97
2023-11-24T00:35:45.010Z,11.12
2023-11-24T00:40:44.955Z,11.11
2023-11-24T00:45:44.866Z,10.82
2023-11-24T00:50:44.836Z,10.22
2023-11-24T00:55:44.733Z,9.77
2023-11-24T01:00:44.797Z,9.37
2023-11-24T01:05:45.652Z,9.02
2023-11-24T01:10:44.531Z,8.82
2023-11-24T01:15:44.468Z,8.60
2023-11-24T01:20:44.400Z,8.42
2023-11-24T01:25:44.321Z,8.27
2023-11-24T01:30:44.307Z,8.19
2023-11-24T01:35:44.177Z,8.16
2023-11-24T01:40:44.128Z,8.15
2023-11-24T01:45:44.113Z,8.13
2023-11-24T01:50:44.044Z,8.10
2023-11-24T01:55:43.925Z,8.10
2023-11-24T02:00:43.894Z,8.06
2023-11-24T02:05:43.781Z,8.03
2023-11-24T02:10:43.744Z,8.05
2023-11-24T02:15:43.797Z,8.05
2023-11-24T02:20:43.609Z,8.05
2023-11-24T02:25:43.519Z,8.06
2023-11-24T02:30:43.498Z,8.12
2023-11-24T02:35:43.382Z,8.10
2023-11-24T02:40:43.355Z,8.09
2023-11-24T02:45:43.237Z,8.15
2023-11-24T02:50:43.213Z,8.13
2023-11-24T02:55:43.117Z,8.13
2023-11-24T03:00:43.099Z,8.13
2023-11-24T03:05:42.978Z,8.08
2023-11-24T03:10:42.955Z,8.05
2023-11-24T03:15:42.870Z,8.06
2023-11-24T03:20:42.825Z,8.08
2023-11-24T03:25:42.720Z,7.90
2023-11-24T03:30:42.669Z,7.58
2023-11-24T03:35:42.588Z,7.40
2023-11-24T03:40:42.523Z,7.24
2023-11-24T03:45:42.463Z,7.13
2023-11-24T03:50:42.399Z,6.93
2023-11-24T03:55:42.345Z,6.72
2023-11-24T04:00:42.338Z,6.70
2023-11-24T04:05:42.185Z,6.63
2023-11-24T04:10:42.122Z,6.54
2023-11-24T04:15:42.124Z,6.52
2023-11-24T04:20:42.014Z,6.49
2023-11-24T04:25:41.917Z,6.49
2023-11-24T04:30:41.908Z,6.45
2023-11-24T04:35:41.798Z,6.45
2023-11-24T04:40:41.716Z,6.41
2023-11-24T04:45:41.665Z,6.41
2023-11-24T04:50:41.593Z,6.39
2023-11-24T04:55:41.492Z,6.42
2023-11-24T05:00:41.483Z,6.39
2023-11-24T05:05:41.372Z,6.41
2023-11-24T05:10:41.328Z,6.46
2023-11-24T05:15:41.435Z,6.51
2023-11-24T05:20:41.229Z,6.57
2023-11-24T05:25:41.121Z,6.66
2023-11-24T05:30:41.058Z,6.70
2023-11-24T05:35:40.990Z,6.72
2023-11-24T05:40:40.906Z,6.79
2023-11-24T05:45:40.884Z,6.78
2023-11-24T05:50:40.781Z,6.75
2023-11-24T05:55:40.731Z,6.79
2023-11-24T06:00:40.644Z,6.84
2023-11-24T06:05:40.691Z,6.84
2023-11-24T06:10:40.503Z,6.85
2023-11-24T06:15:40.483Z,6.82
2023-11-24T06:20:40.389Z,6.84
2023-11-24T06:25:40.358Z,6.81
2023-11-24T06:30:40.234Z,6.77
2023-11-24T06:35:40.204Z,6.74
2023-11-24T06:40:40.112Z,6.67
2023-11-24T06:45:40.058Z,6.60
2023-11-24T06:50:39.971Z,6.67
2023-11-24T06:55:39.919Z,6.72
2023-11-24T07:00:39.949Z,6.69
2023-11-24T07:05:39.848Z,6.67
2023-11-24T07:10:39.778Z,6.62
2023-11-24T07:15:39.772Z,6.72
2023-11-24T07:20:39.582Z,6.78
2023-11-24T07:25:39.521Z,6.70
2023-11-24T07:30:39.451Z,6.67
2023-11-24T07:35:39.393Z,6.74
2023-11-24T07:40:39.294Z,6.74
2023-11-24T07:45:39.386Z,6.79
2023-11-24T07:50:39.182Z,6.84
2023-11-24T07:55:39.143Z,6.95
2023-11-24T08:00:39.061Z,6.95
2023-11-24T08:05:38.975Z,6.92
2023-11-24T08:10:38.902Z,6.82
2023-11-24T08:15:38.885Z,6.54
2023-11-24T08:20:38.794Z,6.14
2023-11-24T08:25:38.736Z,5.79
2023-11-24T08:30:38.660Z,5.79
2023-11-24T08:35:38.617Z,5.83
2023-11-24T08:40:38.511Z,6.01
2023-11-24T08:45:38.510Z,5.94
2023-11-24T08:50:38.361Z,5.91
2023-11-24T08:55:38.321Z,6.11
2023-11-24T09:00:38.334Z,6.38
2023-11-24T09:05:38.199Z,6.33
2023-11-24T09:10:38.105Z,6.38
2023-11-24T09:15:38.074Z,6.44
2023-11-24T09:20:37.964Z,6.11
2023-11-24T09:25:38.002Z,5.91
2023-11-24T09:30:37.895Z,5.98
2023-11-24T09:35:37.779Z,7.54
2023-11-24T09:40:37.689Z,10.22
2023-11-24T09:45:37.670Z,9.06
2023-11-24T09:50:37.551Z,8.36
2023-11-24T09:55:37.550Z,10.61
2023-11-24T10:00:37.434Z,10.25
2023-11-24T10:05:37.376Z,9.95
2023-11-24T10:10:37.331Z,9.55
2023-11-24T10:15:37.304Z,9.16
2023-11-24T10:20:37.156Z,10.09
2023-11-24T10:25:37.127Z,9.80
2023-11-24T10:30:37.317Z,8.94
2023-11-24T10:35:36.992Z,8.74
2023-11-24T10:40:36.907Z,8.55
2023-11-24T10:45:36.859Z,8.71
2023-11-24T10:50:36.764Z,8.37
2023-11-24T10:55:36.714Z,7.88
2023-11-24T11:00:36.664Z,7.57
2023-11-24T11:05:36.630Z,7.43
2023-11-24T11:10:36.531Z,7.47
2023-11-24T11:15:36.447Z,7.61
2023-11-24T11:20:36.376Z,7.43
2023-11-24T11:25:36.323Z,7.69
2023-11-24T11:30:36.196Z,8.01
2023-11-24T11:35:36.223Z,8.74
2023-11-24T11:40:36.085Z,10.17
2023-11-24T11:45:36.061Z,8.52
2023-11-24T11:50:35.987Z,7.72
2023-11-24T11:55:35.983Z,6.52
2023-11-24T12:00:35.831Z,6.20
2023-11-24T12:05:35.789Z,6.05
2023-11-24T12:10:35.689Z,6.07
2023-11-24T12:15:35.948Z,6.39
2023-11-24T12:20:35.557Z,6.39
2023-11-24T12:25:37.358Z,6.64
2023-11-24T12:30:35.416Z,6.52
2023-11-24T12:35:35.385Z,6.41
2023-11-24T12:40:35.324Z,6.33
2023-11-24T12:45:35.298Z,6.51
2023-11-24T12:50:35.153Z,7.06
2023-11-24T12:55:36.109Z,7.51
2023-11-24T13:00:37.761Z,7.33
2023-11-24T13:05:34.957Z,7.35
2023-11-24T13:10:34.885Z,7.56
2023-11-24T13:15:34.831Z,7.23
2023-11-24T13:20:34.752Z,6.79
2023-11-24T13:25:37.758Z,6.42
2023-11-24T13:30:34.655Z,6.12
2023-11-24T13:35:34.578Z,5.84
2023-11-24T13:40:34.528Z,5.83
2023-11-24T13:45:36.952Z,5.84
2023-11-24T13:50:34.386Z,5.83
2023-11-24T13:55:35.295Z,6.01
2023-11-24T14:00:34.252Z,6.07
2023-11-24T14:05:34.184Z,6.17
2023-11-24T14:10:34.205Z,6.07
2023-11-24T14:15:34.036Z,5.84
2023-11-24T14:20:33.949Z,5.73
2023-11-24T14:25:33.896Z,5.80
2023-11-24T14:30:33.846Z,5.93
2023-11-24T14:35:33.766Z,6.07
2023-11-24T14:40:33.773Z,5.91
2023-11-24T14:45:33.647Z,5.83
2023-11-24T14:50:33.555Z,5.86
2023-11-24T14:55:33.537Z,5.84
2023-11-24T15:00:33.429Z,5.80
2023-11-24T15:05:33.383Z,5.68
2023-11-24T15:10:33.298Z,5.62
2023-11-24T15:15:33.273Z,5.59
2023-11-24T15:20:33.153Z,5.50
2023-11-24T15:25:33.114Z,5.39
2023-11-24T15:30:33.047Z,5.33
2023-11-24T15:35:32.980Z,5.18
2023-11-24T15:40:32.897Z,5.08
2023-11-24T15:45:32.867Z,5.08
2023-11-24T15:50:32.774Z,5.08
2023-11-24T15:55:32.720Z,5.21
2023-11-24T16:00:32.656Z,5.23
2023-11-24T16:05:32.590Z,5.23
2023-11-24T16:10:32.534Z,5.23
2023-11-24T16:15:32.440Z,5.20
2023-11-24T16:20:32.362Z,5.21
2023-11-24T16:25:32.277Z,5.17
2023-11-24T16:30:32.217Z,4.94
2023-11-24T16:35:32.148Z,4.90
2023-11-24T16:40:32.126Z,4.84
2023-11-24T16:45:32.942Z,4.73
2023-11-24T16:50:31.956Z,4.70
2023-11-24T16:55:31.922Z,4.71
2023-11-24T17:00:31.802Z,4.68
2023-11-24T17:05:31.789Z,4.68
2023-11-24T17:10:31.736Z,4.63
2023-11-24T17:15:31.582Z,4.60
2023-11-24T17:20:31.568Z,4.32
2023-11-24T17:25:36.765Z,4.01
2023-11-24T17:30:32.463Z,3.77
2023-11-24T17:35:31.346Z,3.00
2023-11-24T17:40:31.350Z,2.46
2023-11-24T17:45:31.211Z,2.10
2023-11-24T17:50:31.211Z,2.22
2023-11-24T17:55:31.122Z,2.25
2023-11-24T18:00:31.059Z,2.31
2023-11-24T18:05:30.936Z,2.22
2023-11-24T18:10:30.930Z,2.32
2023-11-24T18:15:30.848Z,2.32
2023-11-24T18:20:30.774Z,2.31
2023-11-24T18:25:30.727Z,2.43
2023-11-24T18:30:30.641Z,2.54
2023-11-24T18:35:30.557Z,2.60
2023-11-24T18:40:30.597Z,2.68
2023-11-24T18:45:30.436Z,2.80
2023-11-24T18:50:30.385Z,2.82
2023-11-24T18:55:30.357Z,2.92
2023-11-24T19:00:30.301Z,2.89
2023-11-24T19:05:30.155Z,2.85
2023-11-24T19:10:30.140Z,2.87
2023-11-24T19:15:30.030Z,2.93
2023-11-24T19:20:30.000Z,2.98
2023-11-24T19:25:29.993Z,3.08
2023-11-24T19:30:29.856Z,3.21
2023-11-24T19:35:29.815Z,3.28
2023-11-24T19:40:29.754Z,3.31
2023-11-24T19:45:29.633Z,3.42
2023-11-24T19:50:29.610Z,3.51
2023-11-24T19:55:29.577Z,3.63
2023-11-24T20:00:29.470Z,3.73
2023-11-24T20:05:29.390Z,3.74
2023-11-24T20:10:29.370Z,3.76
2023-11-24T20:15:29.273Z,3.78
2023-11-24T20:20:29.191Z,3.84
2023-11-24T20:25:29.133Z,3.92
2023-11-24T20:30:29.081Z,3.96
2023-11-24T20:35:28.982Z,3.98
2023-11-24T20:40:28.993Z,3.88
2023-11-24T20:45:28.850Z,3.76
2023-11-24T20:50:28.787Z,3.66
2023-11-24T20:55:28.725Z,3.62
2023-11-24T21:00:30.086Z,3.56
2023-11-24T21:05:28.598Z,3.21
2023-11-24T21:10:28.559Z,2.71
2023-11-24T21:15:28.525Z,2.57
2023-11-24T21:20:28.443Z,2.57
2023-11-24T21:25:28.450Z,2.62
2023-11-24T21:30:28.295Z,2.67
2023-11-24T21:35:28.203Z,2.65
2023-11-24T21:40:28.218Z,2.62
2023-11-24T21:45:28.080Z,2.67
2023-11-24T21:50:28.015Z,2.68
2023-11-24T21:55:27.985Z,2.80
2023-11-24T22:00:27.917Z,2.95
2023-11-24T22:05:27.823Z,3.04
2023-11-24T22:10:27.802Z,3.13
2023-11-24T22:15:27.683Z,3.10
2023-11-24T22:20:27.617Z,3.07
2023-11-24T22:25:27.606Z,2.98
2023-11-24T22:30:27.497Z,2.90
2023-11-24T22:35:27.381Z,2.87
2023-11-24T22:40:27.407Z,2.85
2023-11-24T22:45:27.267Z,2.80
2023-11-24T22:50:27.216Z,2.79
2023-11-24T22:55:27.175Z,2.92
2023-11-24T23:00:27.127Z,3.04
2023-11-24T23:05:27.029Z,3.11
2023-11-24T23:10:26.984Z,3.07
2023-11-24T23:15:26.866Z,3.14
2023-11-24T23:20:26.837Z,3.16
2023-11-24T23:25:26.798Z,3.19
2023-11-24T23:30:26.681Z,3.19
2023-11-24T23:35:26.623Z,3.13
2023-11-24T23:40:26.616Z,3.05
2023-11-24T23:45:26.485Z,2.95
2023-11-24T23:50:30.667Z,2.83
2023-11-24T23:55:26.364Z,2.71
